Ana Sayfa
METAR-TAF:

METAR-TAF

Havaalanları :

Adelaide, Avustralya

Enlem: 34-56S, Boylam: 138-31E, yükseklik: 6 m

Güncel hava durumu gözlemi

Rapor saat 18:00 UTC de 38 dakika önce yapıldı.
Rüzgar doğudan 1 kt
Sıcaklık 3°C
Nem 93%
Basınç 1024 hPa
Görüş mesafesi 10 km veya daha fazla
1500 m altında bulut yok ve kümülonimbus yok

METAR: YPAD 161800Z 09001KT CAVOK 03/02 Q1024

Saat: 04:08 (18:38 UTC)

Tahmin

Rapor saat 17:04 UTC de 1 saat ve 34 dakika önce yapıldı.
Ayın 16'si saat 18 UTC'den ayın 18'si saat 00 UTC'ye kadar geçerli Tahmin
Rüzgar kuzeydoğudan 8 kt
Görüş mesafesi 10 km veya daha fazla
1500 m altında bulut yok ve kümülonimbus yok

TAF: YPAD 161704Z 1618/1800 04008KT CAVOK

4.000'den fazla havaalanı için hava durumu gözlemleri ve tahminleri (METAR ve TAF raporları).

Kullanılabilir istasyonlar harita üzerinde sarı ve kırmızı noktalarla gösterilir.

İstasyonun adını görmek için fareyi noktanın üzerinde gezdirin.

Sonrasında hava gözlem ve tahminlerini görmek için tıklayın.

Haritayı değiştirmek için: yaklaştırmak için siyah artı işaretli yeşil düğmeye ve uzaklaştırmak için de eksi işaretli düğmeye hızla tıklayın; bitişik haritalar için yeşil okları kullanın.


METAR-TAF: